sensor_id;sensor_type;location;lat;lon;timestamp;pressure;altitude;pressure_sealevel;temperature;humidity
29197;BME280;62796;42.654;23.316;2022-10-16T00:00:43;95188.72;;;12.39;62.27
29197;BME280;62796;42.654;23.316;2022-10-16T00:03:09;95195.66;;;12.40;62.38
29197;BME280;62796;42.654;23.316;2022-10-16T00:05:44;95191.63;;;12.38;62.23
29197;BME280;62796;42.654;23.316;2022-10-16T00:08:12;95186.84;;;12.34;62.29
29197;BME280;62796;42.654;23.316;2022-10-16T00:10:38;95203.09;;;12.38;62.39
29197;BME280;62796;42.654;23.316;2022-10-16T00:13:04;95191.91;;;12.31;62.31
29197;BME280;62796;42.654;23.316;2022-10-16T00:15:32;95204.41;;;12.35;62.03
29197;BME280;62796;42.654;23.316;2022-10-16T00:17:58;95206.78;;;12.32;62.12
29197;BME280;62796;42.654;23.316;2022-10-16T00:20:23;95202.00;;;12.29;62.20
29197;BME280;62796;42.654;23.316;2022-10-16T00:22:49;95203.56;;;12.25;62.03
29197;BME280;62796;42.654;23.316;2022-10-16T00:25:14;95191.00;;;12.15;62.12
29197;BME280;62796;42.654;23.316;2022-10-16T00:27:39;95208.31;;;12.18;62.19
29197;BME280;62796;42.654;23.316;2022-10-16T00:30:05;95208.03;;;12.14;62.50
29197;BME280;62796;42.654;23.316;2022-10-16T00:32:33;95210.91;;;12.07;62.50
29197;BME280;62796;42.654;23.316;2022-10-16T00:34:58;95223.13;;;12.03;62.46
29197;BME280;62796;42.654;23.316;2022-10-16T00:37:24;95217.25;;;12.01;62.75
29197;BME280;62796;42.654;23.316;2022-10-16T00:39:49;95217.72;;;11.93;62.65
29197;BME280;62796;42.654;23.316;2022-10-16T00:42:16;95223.59;;;11.95;62.61
29197;BME280;62796;42.654;23.316;2022-10-16T00:47:17;95222.00;;;11.94;62.99
29197;BME280;62796;42.654;23.316;2022-10-16T00:49:43;95198.22;;;11.82;63.09
29197;BME280;62796;42.654;23.316;2022-10-16T00:52:10;95217.97;;;11.91;62.78
29197;BME280;62796;42.654;23.316;2022-10-16T00:54:36;95211.78;;;11.86;63.22
29197;BME280;62796;42.654;23.316;2022-10-16T00:57:04;95196.88;;;11.80;63.04
29197;BME280;62796;42.654;23.316;2022-10-16T00:59:34;95211.50;;;11.82;63.13
29197;BME280;62796;42.654;23.316;2022-10-16T01:02:00;95214.41;;;11.81;63.24
29197;BME280;62796;42.654;23.316;2022-10-16T01:04:26;95217.31;;;11.79;63.01
29197;BME280;62796;42.654;23.316;2022-10-16T01:09:34;95222.34;;;11.75;63.17
29197;BME280;62796;42.654;23.316;2022-10-16T01:12:20;95223.97;;;11.76;63.58
29197;BME280;62796;42.654;23.316;2022-10-16T01:14:58;95213.00;;;11.68;63.17
29197;BME280;62796;42.654;23.316;2022-10-16T01:22:43;95212.44;;;11.66;63.02
29197;BME280;62796;42.654;23.316;2022-10-16T01:25:22;95216.97;;;11.65;63.41
29197;BME280;62796;42.654;23.316;2022-10-16T01:27:51;95213.25;;;11.66;63.50
29197;BME280;62796;42.654;23.316;2022-10-16T01:30:22;95206.63;;;11.69;63.19
29197;BME280;62796;42.654;23.316;2022-10-16T01:33:04;95209.28;;;11.69;63.21
29197;BME280;62796;42.654;23.316;2022-10-16T01:35:41;95205.56;;;11.70;63.73
29197;BME280;62796;42.654;23.316;2022-10-16T01:38:13;95209.88;;;11.76;63.93
29197;BME280;62796;42.654;23.316;2022-10-16T01:40:45;95208.81;;;11.77;63.90
29197;BME280;62796;42.654;23.316;2022-10-16T01:43:15;95212.81;;;11.80;63.43
29197;BME280;62796;42.654;23.316;2022-10-16T01:45:44;95196.28;;;11.72;63.06
29197;BME280;62796;42.654;23.316;2022-10-16T01:48:12;95208.31;;;11.80;63.20
29197;BME280;62796;42.654;23.316;2022-10-16T01:50:39;95217.91;;;11.81;63.07
29197;BME280;62796;42.654;23.316;2022-10-16T01:53:08;95214.16;;;11.82;63.09
29197;BME280;62796;42.654;23.316;2022-10-16T01:55:38;95221.09;;;11.83;63.26
29197;BME280;62796;42.654;23.316;2022-10-16T01:58:10;95219.72;;;11.81;62.25
29197;BME280;62796;42.654;23.316;2022-10-16T02:00:38;95213.06;;;11.78;62.10
29197;BME280;62796;42.654;23.316;2022-10-16T02:03:05;95218.06;;;11.69;61.78
29197;BME280;62796;42.654;23.316;2022-10-16T02:05:36;95195.28;;;11.46;61.96
29197;BME280;62796;42.654;23.316;2022-10-16T02:08:04;95223.84;;;11.61;62.16
29197;BME280;62796;42.654;23.316;2022-10-16T02:10:29;95223.78;;;11.56;62.21
29197;BME280;62796;42.654;23.316;2022-10-16T02:15:28;95234.34;;;11.46;62.57
29197;BME280;62796;42.654;23.316;2022-10-16T02:17:53;95216.59;;;11.24;62.70
29197;BME280;62796;42.654;23.316;2022-10-16T02:20:25;95235.53;;;11.33;62.30
29197;BME280;62796;42.654;23.316;2022-10-16T02:22:52;95238.91;;;11.23;63.03
29197;BME280;62796;42.654;23.316;2022-10-16T02:25:26;95248.69;;;11.17;63.20
29197;BME280;62796;42.654;23.316;2022-10-16T02:30:25;95251.22;;;11.07;63.61
29197;BME280;62796;42.654;23.316;2022-10-16T02:32:53;95250.69;;;11.05;63.61
29197;BME280;62796;42.654;23.316;2022-10-16T02:35:21;95246.91;;;11.01;64.03
29197;BME280;62796;42.654;23.316;2022-10-16T02:37:48;95249.81;;;10.99;64.04
29197;BME280;62796;42.654;23.316;2022-10-16T02:40:15;95243.41;;;10.95;64.01
29197;BME280;62796;42.654;23.316;2022-10-16T02:42:41;95243.88;;;10.92;64.54
29197;BME280;62796;42.654;23.316;2022-10-16T02:45:09;95252.16;;;10.96;64.24
29197;BME280;62796;42.654;23.316;2022-10-16T02:47:34;95258.28;;;10.96;63.87
29197;BME280;62796;42.654;23.316;2022-10-16T02:50:00;95248.47;;;10.97;63.74
29197;BME280;62796;42.654;23.316;2022-10-16T02:52:25;95254.06;;;11.00;63.56
29197;BME280;62796;42.654;23.316;2022-10-16T02:54:51;95263.59;;;10.96;63.96
29197;BME280;62796;42.654;23.316;2022-10-16T02:57:17;95252.44;;;10.94;63.98
29197;BME280;62796;42.654;23.316;2022-10-16T02:59:43;95263.59;;;10.96;64.48
29197;BME280;62796;42.654;23.316;2022-10-16T03:02:09;95265.72;;;10.94;64.02
29197;BME280;62796;42.654;23.316;2022-10-16T03:04:34;95265.66;;;10.89;64.04
29197;BME280;62796;42.654;23.316;2022-10-16T03:07:00;95262.16;;;10.89;63.85
29197;BME280;62796;42.654;23.316;2022-10-16T03:09:25;95270.06;;;10.83;63.94
29197;BME280;62796;42.654;23.316;2022-10-16T03:11:51;95267.38;;;10.78;64.03
29197;BME280;62796;42.654;23.316;2022-10-16T03:14:17;95280.69;;;10.83;64.00
29197;BME280;62796;42.654;23.316;2022-10-16T03:16:42;95273.78;;;10.82;64.16
29197;BME280;62796;42.654;23.316;2022-10-16T03:19:08;95276.06;;;10.74;64.09
29197;BME280;62796;42.654;23.316;2022-10-16T03:21:33;95278.47;;;10.75;64.02
29197;BME280;62796;42.654;23.316;2022-10-16T03:23:59;95273.59;;;10.67;64.51
29197;BME280;62796;42.654;23.316;2022-10-16T03:26:24;95276.25;;;10.67;64.42
29197;BME280;62796;42.654;23.316;2022-10-16T03:28:49;95278.03;;;10.61;64.98
29197;BME280;62796;42.654;23.316;2022-10-16T03:31:15;95262.81;;;10.52;64.89
29197;BME280;62796;42.654;23.316;2022-10-16T03:33:40;95270.94;;;10.45;65.09
29197;BME280;62796;42.654;23.316;2022-10-16T03:36:06;95275.69;;;10.43;65.46
29197;BME280;62796;42.654;23.316;2022-10-16T03:38:32;95283.13;;;10.46;65.38
29197;BME280;62796;42.654;23.316;2022-10-16T03:40:57;95276.22;;;10.45;65.60
29197;BME280;62796;42.654;23.316;2022-10-16T03:43:23;95289.56;;;10.50;65.51
29197;BME280;62796;42.654;23.316;2022-10-16T03:45:50;95289.81;;;10.49;65.67
29197;BME280;62796;42.654;23.316;2022-10-16T03:48:17;95285.00;;;10.45;65.38
29197;BME280;62796;42.654;23.316;2022-10-16T03:50:42;95278.56;;;10.41;65.63
29197;BME280;62796;42.654;23.316;2022-10-16T03:53:07;95281.22;;;10.41;65.90
29197;BME280;62796;42.654;23.316;2022-10-16T03:55:34;95274.38;;;10.45;65.61
29197;BME280;62796;42.654;23.316;2022-10-16T03:57:59;95277.28;;;10.44;65.94
29197;BME280;62796;42.654;23.316;2022-10-16T04:00:24;95272.50;;;10.46;66.15
29197;BME280;62796;42.654;23.316;2022-10-16T04:02:50;95273.50;;;10.40;66.27
29197;BME280;62796;42.654;23.316;2022-10-16T04:05:15;95264.00;;;10.44;66.17
29197;BME280;62796;42.654;23.316;2022-10-16T04:07:41;95278.38;;;10.48;66.19
29197;BME280;62796;42.654;23.316;2022-10-16T04:10:06;95275.00;;;10.53;65.65
29197;BME280;62796;42.654;23.316;2022-10-16T04:12:32;95277.41;;;10.54;65.79
29197;BME280;62796;42.654;23.316;2022-10-16T04:14:57;95264.31;;;10.48;65.92
29197;BME280;62796;42.654;23.316;2022-10-16T04:17:23;95270.50;;;10.53;65.75
29197;BME280;62796;42.654;23.316;2022-10-16T04:19:48;95269.44;;;10.54;65.20
29197;BME280;62796;42.654;23.316;2022-10-16T04:22:14;95282.25;;;10.57;64.39
29197;BME280;62796;42.654;23.316;2022-10-16T04:24:39;95274.94;;;10.48;64.53
29197;BME280;62796;42.654;23.316;2022-10-16T04:27:05;95287.94;;;10.49;64.51
29197;BME280;62796;42.654;23.316;2022-10-16T04:29:30;95282.56;;;10.44;64.18
29197;BME280;62796;42.654;23.316;2022-10-16T04:31:55;95289.19;;;10.41;64.05
29197;BME280;62796;42.654;23.316;2022-10-16T04:34:21;95282.09;;;10.30;64.46
29197;BME280;62796;42.654;23.316;2022-10-16T04:36:47;95288.31;;;10.36;64.10
29197;BME280;62796;42.654;23.316;2022-10-16T04:39:14;95293.03;;;10.34;64.31
29197;BME280;62796;42.654;23.316;2022-10-16T04:41:40;95292.13;;;10.28;64.49
29197;BME280;62796;42.654;23.316;2022-10-16T04:44:05;95299.66;;;10.31;64.61
29197;BME280;62796;42.654;23.316;2022-10-16T04:46:30;95299.41;;;10.33;64.46
29197;BME280;62796;42.654;23.316;2022-10-16T04:48:56;95292.94;;;10.29;64.21
29197;BME280;62796;42.654;23.316;2022-10-16T04:51:21;95299.97;;;10.35;64.55
29197;BME280;62796;42.654;23.316;2022-10-16T04:53:46;95304.78;;;10.38;64.61
29197;BME280;62796;42.654;23.316;2022-10-16T04:56:12;95305.97;;;10.30;64.52
29197;BME280;62796;42.654;23.316;2022-10-16T04:58:37;95310.56;;;10.35;64.15
29197;BME280;62796;42.654;23.316;2022-10-16T05:01:03;95321.03;;;10.41;64.46
29197;BME280;62796;42.654;23.316;2022-10-16T05:03:28;95317.06;;;10.44;64.23
29197;BME280;62796;42.654;23.316;2022-10-16T05:05:54;95324.06;;;10.50;64.12
29197;BME280;62796;42.654;23.316;2022-10-16T05:08:19;95333.44;;;10.58;64.00
29197;BME280;62796;42.654;23.316;2022-10-16T05:10:44;95328.22;;;10.63;63.78
29197;BME280;62796;42.654;23.316;2022-10-16T05:13:10;95326.75;;;10.72;63.67
29197;BME280;62796;42.654;23.316;2022-10-16T05:15:36;95324.94;;;10.78;63.54
29197;BME280;62796;42.654;23.316;2022-10-16T05:18:02;95317.81;;;10.78;62.93
29197;BME280;62796;42.654;23.316;2022-10-16T05:20:28;95327.19;;;10.86;63.29
29197;BME280;62796;42.654;23.316;2022-10-16T05:22:53;95332.75;;;10.85;63.27
29197;BME280;62796;42.654;23.316;2022-10-16T05:25:19;95335.22;;;10.91;63.47
29197;BME280;62796;42.654;23.316;2022-10-16T05:27:47;95327.56;;;10.95;63.35
29197;BME280;62796;42.654;23.316;2022-10-16T05:30:13;95333.41;;;11.19;62.99
29197;BME280;62796;42.654;23.316;2022-10-16T05:32:38;95335.69;;;11.32;63.31
29197;BME280;62796;42.654;23.316;2022-10-16T05:35:04;95338.66;;;11.58;62.87
29197;BME280;62796;42.654;23.316;2022-10-16T05:37:30;95336.41;;;11.77;62.38
29197;BME280;62796;42.654;23.316;2022-10-16T05:39:55;95338.03;;;12.05;62.09
29197;BME280;62796;42.654;23.316;2022-10-16T05:42:20;95331.25;;;12.25;61.32
29197;BME280;62796;42.654;23.316;2022-10-16T05:44:46;95332.25;;;12.51;60.75
29197;BME280;62796;42.654;23.316;2022-10-16T05:47:14;95340.94;;;12.79;60.34
29197;BME280;62796;42.654;23.316;2022-10-16T05:49:40;95350.69;;;13.05;59.87
29197;BME280;62796;42.654;23.316;2022-10-16T05:52:05;95350.22;;;13.29;58.91
29197;BME280;62796;42.654;23.316;2022-10-16T05:54:31;95343.94;;;13.51;58.23
29197;BME280;62796;42.654;23.316;2022-10-16T05:56:56;95358.41;;;13.85;57.19
29197;BME280;62796;42.654;23.316;2022-10-16T05:59:22;95352.56;;;14.04;55.43
29197;BME280;62796;42.654;23.316;2022-10-16T06:01:47;95352.84;;;14.23;54.86
29197;BME280;62796;42.654;23.316;2022-10-16T06:04:12;95375.53;;;14.56;54.45
29197;BME280;62796;42.654;23.316;2022-10-16T06:06:38;95368.31;;;14.83;53.36
29197;BME280;62796;42.654;23.316;2022-10-16T06:09:04;95373.59;;;15.03;52.99
29197;BME280;62796;42.654;23.316;2022-10-16T06:11:31;95370.63;;;15.20;52.26
29197;BME280;62796;42.654;23.316;2022-10-16T06:13:59;95380.44;;;15.35;51.96
29197;BME280;62796;42.654;23.316;2022-10-16T06:16:27;95384.66;;;15.56;51.75
29197;BME280;62796;42.654;23.316;2022-10-16T06:18:53;95384.00;;;15.85;50.92
29197;BME280;62796;42.654;23.316;2022-10-16T06:21:28;95377.94;;;16.14;50.09
29197;BME280;62796;42.654;23.316;2022-10-16T06:23:55;95379.28;;;16.46;49.88
29197;BME280;62796;42.654;23.316;2022-10-16T06:26:23;95386.81;;;16.73;49.43
29197;BME280;62796;42.654;23.316;2022-10-16T06:28:49;95387.31;;;17.10;48.61
29197;BME280;62796;42.654;23.316;2022-10-16T06:31:16;95388.63;;;17.36;47.82
29197;BME280;62796;42.654;23.316;2022-10-16T06:33:42;95382.38;;;17.65;47.75
29197;BME280;62796;42.654;23.316;2022-10-16T06:36:10;95391.34;;;17.98;46.09
29197;BME280;62796;42.654;23.316;2022-10-16T06:38:36;95389.09;;;18.25;45.72
29197;BME280;62796;42.654;23.316;2022-10-16T06:41:03;95393.50;;;18.53;45.19
29197;BME280;62796;42.654;23.316;2022-10-16T06:43:29;95401.38;;;18.83;44.34
29197;BME280;62796;42.654;23.316;2022-10-16T06:46:00;95401.91;;;18.99;44.25
29197;BME280;62796;42.654;23.316;2022-10-16T06:48:26;95409.09;;;19.17;44.22
29197;BME280;62796;42.654;23.316;2022-10-16T06:51:12;95405.94;;;19.43;43.81
29197;BME280;62796;42.654;23.316;2022-10-16T06:53:41;95416.13;;;19.73;43.56
29197;BME280;62796;42.654;23.316;2022-10-16T06:56:11;95413.94;;;19.76;42.53
29197;BME280;62796;42.654;23.316;2022-10-16T06:58:38;95414.69;;;19.90;42.79
29197;BME280;62796;42.654;23.316;2022-10-16T07:01:04;95418.69;;;20.06;42.09
29197;BME280;62796;42.654;23.316;2022-10-16T07:03:30;95423.44;;;20.09;41.71
29197;BME280;62796;42.654;23.316;2022-10-16T07:05:56;95419.88;;;20.00;41.64
29197;BME280;62796;42.654;23.316;2022-10-16T07:08:21;95410.69;;;20.15;41.95
29197;BME280;62796;42.654;23.316;2022-10-16T07:10:47;95433.41;;;20.23;41.49
29197;BME280;62796;42.654;23.316;2022-10-16T07:13:13;95416.19;;;20.33;41.25
29197;BME280;62796;42.654;23.316;2022-10-16T07:15:39;95415.78;;;20.39;41.22
29197;BME280;62796;42.654;23.316;2022-10-16T07:18:05;95418.72;;;20.52;40.91
29197;BME280;62796;42.654;23.316;2022-10-16T07:20:30;95426.78;;;20.88;40.57
29197;BME280;62796;42.654;23.316;2022-10-16T07:22:56;95428.31;;;21.03;39.93
29197;BME280;62796;42.654;23.316;2022-10-16T07:25:21;95424.53;;;20.81;40.02
29197;BME280;62796;42.654;23.316;2022-10-16T07:27:46;95431.19;;;20.84;40.26
29197;BME280;62796;42.654;23.316;2022-10-16T07:30:12;95428.81;;;20.82;40.24
29197;BME280;62796;42.654;23.316;2022-10-16T07:32:37;95431.53;;;21.14;39.79
29197;BME280;62796;42.654;23.316;2022-10-16T07:35:03;95426.88;;;21.37;38.99
29197;BME280;62796;42.654;23.316;2022-10-16T07:37:29;95433.44;;;21.45;39.23
29197;BME280;62796;42.654;23.316;2022-10-16T07:39:54;95424.25;;;21.46;39.40
29197;BME280;62796;42.654;23.316;2022-10-16T07:42:20;95429.91;;;21.75;39.25
29197;BME280;62796;42.654;23.316;2022-10-16T07:44:45;95426.63;;;21.96;38.86
29197;BME280;62796;42.654;23.316;2022-10-16T07:47:11;95426.69;;;22.31;38.05
29197;BME280;62796;42.654;23.316;2022-10-16T07:49:36;95421.28;;;22.40;37.45
29197;BME280;62796;42.654;23.316;2022-10-16T07:52:02;95425.75;;;22.53;37.20
29197;BME280;62796;42.654;23.316;2022-10-16T07:54:27;95421.44;;;22.87;37.16
29197;BME280;62796;42.654;23.316;2022-10-16T07:56:52;95427.63;;;22.96;36.94
29197;BME280;62796;42.654;23.316;2022-10-16T07:59:18;95433.03;;;22.96;36.66
29197;BME280;62796;42.654;23.316;2022-10-16T08:01:43;95432.22;;;23.04;36.50
29197;BME280;62796;42.654;23.316;2022-10-16T08:04:10;95441.31;;;22.82;37.10
29197;BME280;62796;42.654;23.316;2022-10-16T08:06:38;95429.84;;;22.94;36.99
29197;BME280;62796;42.654;23.316;2022-10-16T08:09:04;95427.75;;;23.17;36.18
29197;BME280;62796;42.654;23.316;2022-10-16T08:11:30;95433.06;;;23.52;36.30
29197;BME280;62796;42.654;23.316;2022-10-16T08:13:55;95434.09;;;23.68;35.37
29197;BME280;62796;42.654;23.316;2022-10-16T08:16:21;95439.47;;;23.77;35.17
29197;BME280;62796;42.654;23.316;2022-10-16T08:18:46;95431.72;;;23.67;36.07
29197;BME280;62796;42.654;23.316;2022-10-16T08:21:15;95431.94;;;23.53;36.15
29197;BME280;62796;42.654;23.316;2022-10-16T08:23:40;95426.25;;;23.84;35.41
29197;BME280;62796;42.654;23.316;2022-10-16T08:26:08;95433.16;;;24.03;34.94
29197;BME280;62796;42.654;23.316;2022-10-16T08:28:34;95416.41;;;24.01;34.88
29197;BME280;62796;42.654;23.316;2022-10-16T08:31:14;95418.09;;;23.84;35.30
29197;BME280;62796;42.654;23.316;2022-10-16T08:33:42;95412.22;;;23.82;35.26
29197;BME280;62796;42.654;23.316;2022-10-16T08:36:09;95419.06;;;23.50;35.32
29197;BME280;62796;42.654;23.316;2022-10-16T08:38:35;95422.50;;;22.94;35.79
29197;BME280;62796;42.654;23.316;2022-10-16T08:49:11;95431.06;;;24.30;34.47
29197;BME280;62796;42.654;23.316;2022-10-16T08:51:39;95416.09;;;24.23;33.80
29197;BME280;62796;42.654;23.316;2022-10-16T08:54:21;95420.34;;;24.12;33.54
29197;BME280;62796;42.654;23.316;2022-10-16T08:56:48;95426.06;;;24.61;33.02
29197;BME280;62796;42.654;23.316;2022-10-16T08:59:14;95430.13;;;24.89;32.95
29197;BME280;62796;42.654;23.316;2022-10-16T09:01:45;95442.09;;;25.21;31.78
29197;BME280;62796;42.654;23.316;2022-10-16T09:06:48;95436.31;;;25.56;31.19
29197;BME280;62796;42.654;23.316;2022-10-16T09:12:19;95432.88;;;25.34;30.40
29197;BME280;62796;42.654;23.316;2022-10-16T09:19:53;95420.47;;;25.58;30.08
29197;BME280;62796;42.654;23.316;2022-10-16T09:22:22;95422.28;;;25.66;30.01
29197;BME280;62796;42.654;23.316;2022-10-16T09:24:51;95422.53;;;25.98;28.63
29197;BME280;62796;42.654;23.316;2022-10-16T09:27:16;95428.72;;;25.86;29.16
29197;BME280;62796;42.654;23.316;2022-10-16T09:29:42;95428.38;;;26.25;28.78
29197;BME280;62796;42.654;23.316;2022-10-16T09:32:12;95420.31;;;26.41;28.62
29197;BME280;62796;42.654;23.316;2022-10-16T09:34:43;95431.03;;;26.62;27.37
29197;BME280;62796;42.654;23.316;2022-10-16T09:37:13;95423.47;;;26.83;27.23
29197;BME280;62796;42.654;23.316;2022-10-16T09:39:50;95426.78;;;27.05;26.71
29197;BME280;62796;42.654;23.316;2022-10-16T09:42:18;95419.28;;;27.02;26.80
29197;BME280;62796;42.654;23.316;2022-10-16T09:44:50;95422.34;;;27.28;26.85
29197;BME280;62796;42.654;23.316;2022-10-16T09:47:21;95419.22;;;27.14;27.19
29197;BME280;62796;42.654;23.316;2022-10-16T09:49:58;95417.19;;;26.95;26.94
29197;BME280;62796;42.654;23.316;2022-10-16T09:52:28;95412.13;;;27.25;26.61
29197;BME280;62796;42.654;23.316;2022-10-16T09:55:09;95397.47;;;27.30;26.98
29197;BME280;62796;42.654;23.316;2022-10-16T09:57:49;95406.72;;;27.73;26.75
29197;BME280;62796;42.654;23.316;2022-10-16T10:00:16;95404.19;;;27.64;26.40
29197;BME280;62796;42.654;23.316;2022-10-16T10:02:42;95413.28;;;27.88;25.74
29197;BME280;62796;42.654;23.316;2022-10-16T10:05:24;95406.78;;;28.09;25.36
29197;BME280;62796;42.654;23.316;2022-10-16T10:08:01;95404.50;;;27.79;25.95
29197;BME280;62796;42.654;23.316;2022-10-16T10:10:33;95407.31;;;27.98;25.66
29197;BME280;62796;42.654;23.316;2022-10-16T10:13:00;95395.31;;;28.19;25.77
29197;BME280;62796;42.654;23.316;2022-10-16T10:15:28;95397.13;;;28.31;25.53
29197;BME280;62796;42.654;23.316;2022-10-16T10:17:58;95396.59;;;28.61;25.43
29197;BME280;62796;42.654;23.316;2022-10-16T10:20:32;95390.28;;;28.76;24.70
29197;BME280;62796;42.654;23.316;2022-10-16T10:23:00;95401.25;;;28.99;25.28
29197;BME280;62796;42.654;23.316;2022-10-16T10:25:35;95387.34;;;29.27;24.18
29197;BME280;62796;42.654;23.316;2022-10-16T10:28:10;95384.25;;;29.29;24.47
29197;BME280;62796;42.654;23.316;2022-10-16T10:33:53;95386.88;;;29.02;24.30
29197;BME280;62796;42.654;23.316;2022-10-16T10:38:54;95378.59;;;29.41;23.20
29197;BME280;62796;42.654;23.316;2022-10-16T10:50:30;95375.81;;;29.87;23.10
29197;BME280;62796;42.654;23.316;2022-10-16T10:56:39;95355.56;;;30.22;22.22
29197;BME280;62796;42.654;23.316;2022-10-16T10:59:25;95362.19;;;30.18;22.41
29197;BME280;62796;42.654;23.316;2022-10-16T11:02:00;95358.81;;;30.01;22.13
29197;BME280;62796;42.654;23.316;2022-10-16T11:07:28;95347.31;;;29.88;22.26
29197;BME280;62796;42.654;23.316;2022-10-16T11:09:57;95344.97;;;29.90;22.17
29197;BME280;62796;42.654;23.316;2022-10-16T11:12:33;95340.25;;;30.14;23.09
29197;BME280;62796;42.654;23.316;2022-10-16T11:15:23;95339.63;;;30.28;21.44
29197;BME280;62796;42.654;23.316;2022-10-16T11:20:48;95329.00;;;29.93;22.15
29197;BME280;62796;42.654;23.316;2022-10-16T11:23:25;95334.66;;;29.77;22.07
29197;BME280;62796;42.654;23.316;2022-10-16T11:25:53;95328.47;;;29.10;21.46
29197;BME280;62796;42.654;23.316;2022-10-16T11:30:55;95329.84;;;28.38;22.36
29197;BME280;62796;42.654;23.316;2022-10-16T11:33:32;95334.00;;;28.32;22.54
29197;BME280;62796;42.654;23.316;2022-10-16T11:36:23;95338.53;;;28.25;23.27
29197;BME280;62796;42.654;23.316;2022-10-16T11:39:15;95328.34;;;28.61;22.03
29197;BME280;62796;42.654;23.316;2022-10-16T11:41:52;95328.00;;;28.62;22.17
29197;BME280;62796;42.654;23.316;2022-10-16T11:49:31;95331.25;;;29.37;22.38
29197;BME280;62796;42.654;23.316;2022-10-16T11:52:26;95332.06;;;29.87;21.01
29197;BME280;62796;42.654;23.316;2022-10-16T11:57:34;95317.41;;;30.03;21.02
29197;BME280;62796;42.654;23.316;2022-10-16T12:00:24;95327.47;;;29.95;21.12
29197;BME280;62796;42.654;23.316;2022-10-16T12:05:58;95331.78;;;30.26;21.61
29197;BME280;62796;42.654;23.316;2022-10-16T12:08:28;95320.31;;;30.17;21.95
29197;BME280;62796;42.654;23.316;2022-10-16T12:10:54;95317.38;;;30.33;20.94
29197;BME280;62796;42.654;23.316;2022-10-16T12:13:32;95330.41;;;30.09;20.42
29197;BME280;62796;42.654;23.316;2022-10-16T12:18:43;95333.69;;;30.22;21.92
29197;BME280;62796;42.654;23.316;2022-10-16T12:21:10;95329.59;;;30.36;22.18
29197;BME280;62796;42.654;23.316;2022-10-16T12:24:02;95322.63;;;30.76;21.76
29197;BME280;62796;42.654;23.316;2022-10-16T12:26:34;95332.81;;;31.20;21.46
29197;BME280;62796;42.654;23.316;2022-10-16T12:31:56;95332.22;;;31.93;20.63
29197;BME280;62796;42.654;23.316;2022-10-16T12:34:28;95329.66;;;32.22;20.73
29197;BME280;62796;42.654;23.316;2022-10-16T12:36:55;95330.94;;;32.42;19.79
29197;BME280;62796;42.654;23.316;2022-10-16T12:39:32;95327.13;;;32.72;19.23
29197;BME280;62796;42.654;23.316;2022-10-16T12:42:21;95340.88;;;32.83;19.34
29197;BME280;62796;42.654;23.316;2022-10-16T12:44:47;95322.84;;;32.89;19.90
29197;BME280;62796;42.654;23.316;2022-10-16T12:47:34;95334.25;;;33.02;19.89
29197;BME280;62796;42.654;23.316;2022-10-16T12:50:01;95321.34;;;33.17;20.03
29197;BME280;62796;42.654;23.316;2022-10-16T12:52:37;95330.78;;;33.37;19.58
29197;BME280;62796;42.654;23.316;2022-10-16T12:55:05;95321.34;;;33.45;19.25
29197;BME280;62796;42.654;23.316;2022-10-16T13:00:13;95332.38;;;33.38;19.60
29197;BME280;62796;42.654;23.316;2022-10-16T13:05:54;95341.38;;;33.49;19.38
29197;BME280;62796;42.654;23.316;2022-10-16T13:26:57;95341.38;;;33.85;18.56
29197;BME280;62796;42.654;23.316;2022-10-16T13:29:32;95327.16;;;34.09;18.39
29197;BME280;62796;42.654;23.316;2022-10-16T13:31:59;95338.97;;;34.23;18.19
29197;BME280;62796;42.654;23.316;2022-10-16T13:34:26;95334.16;;;34.46;18.56
29197;BME280;62796;42.654;23.316;2022-10-16T13:36:53;95337.69;;;34.50;18.38
29197;BME280;62796;42.654;23.316;2022-10-16T13:39:29;95338.56;;;34.18;18.56
29197;BME280;62796;42.654;23.316;2022-10-16T13:44:23;95339.28;;;34.40;18.21
29197;BME280;62796;42.654;23.316;2022-10-16T13:46:59;95345.09;;;34.67;18.15
29197;BME280;62796;42.654;23.316;2022-10-16T13:49:25;95343.06;;;34.86;18.09
29197;BME280;62796;42.654;23.316;2022-10-16T13:52:00;95339.75;;;35.09;17.80
29197;BME280;62796;42.654;23.316;2022-10-16T13:54:27;95343.19;;;34.50;17.58
29197;BME280;62796;42.654;23.316;2022-10-16T13:56:54;95340.06;;;34.48;17.81
29197;BME280;62796;42.654;23.316;2022-10-16T13:59:26;95347.94;;;34.46;17.65
29197;BME280;62796;42.654;23.316;2022-10-16T14:01:55;95324.44;;;34.23;18.04
29197;BME280;62796;42.654;23.316;2022-10-16T14:04:23;95350.28;;;34.47;17.95
29197;BME280;62796;42.654;23.316;2022-10-16T14:06:50;95342.38;;;34.56;18.63
29197;BME280;62796;42.654;23.316;2022-10-16T14:09:47;95339.16;;;34.72;18.28
29197;BME280;62796;42.654;23.316;2022-10-16T14:12:13;95348.66;;;34.60;18.39
29197;BME280;62796;42.654;23.316;2022-10-16T14:14:50;95351.06;;;34.51;18.52
29197;BME280;62796;42.654;23.316;2022-10-16T14:17:28;95353.44;;;34.46;19.09
29197;BME280;62796;42.654;23.316;2022-10-16T14:19:57;95349.22;;;34.23;18.63
29197;BME280;62796;42.654;23.316;2022-10-16T14:24:55;95344.13;;;33.57;18.84
29197;BME280;62796;42.654;23.316;2022-10-16T14:27:35;95355.91;;;33.18;19.01
29197;BME280;62796;42.654;23.316;2022-10-16T14:30:19;95354.94;;;32.60;19.51
29197;BME280;62796;42.654;23.316;2022-10-16T14:33:03;95370.47;;;31.71;20.07
29197;BME280;62796;42.654;23.316;2022-10-16T14:35:35;95363.19;;;30.66;21.34
29197;BME280;62796;42.654;23.316;2022-10-16T14:38:02;95358.88;;;30.05;21.63
29197;BME280;62796;42.654;23.316;2022-10-16T14:40:35;95357.53;;;29.19;22.91
29197;BME280;62796;42.654;23.316;2022-10-16T14:43:03;95365.88;;;28.28;23.61
29197;BME280;62796;42.654;23.316;2022-10-16T14:45:31;95355.19;;;27.68;23.91